Orbital elements of COSMOS 252 DEB
| Launched | 31 October 1968 |
| Flight ended | – |
| Launch site | Tyuratam Missile and Space Center, Kazakhstan (Also known as Baikonur Cosmodrome) |
| Owner | Commonwealth of Independent States (former USSR) |
| NORAD ID | 3788 |
| Date fetched |
Epoch osculation |
Inc. [°] |
Ecc. | RA asc node [hr] |
Arg Peri. [°] |
Mean anom [°] |
Mean motion [rev/day] |
Abs. mag |
| Date fetched |
Epoch osculation |
Inc. [°] |
Ecc. | RA asc node [hr] |
Arg Peri. [°] |
Mean anom [°] |
Mean motion [rev/day] |
Abs. mag |
| 2026 May 04 17:57 | 2026 Apr 30 11:29:05 | 61.8743 | 0.05769 | 13.9661 | 8.3386 | 73.9436 | 11.88464 | – |
| 2026 May 03 17:57 | 2026 Apr 30 11:29:05 | 61.8743 | 0.05769 | 13.9661 | 8.3386 | 73.9436 | 11.88464 | – |
| 2026 May 02 17:57 | 2026 Apr 30 11:29:05 | 61.8743 | 0.05769 | 13.9661 | 8.3386 | 73.9436 | 11.88464 | – |
| 2026 May 01 17:56 | 2026 Apr 30 11:29:05 | 61.8743 | 0.05769 | 13.9661 | 8.3386 | 73.9436 | 11.88464 | – |
| 2026 Apr 30 17:56 | 2026 Apr 30 11:29:05 | 61.8743 | 0.05769 | 13.9661 | 8.3386 | 73.9436 | 11.88464 | – |
| 2026 Apr 29 17:57 | 2026 Apr 24 12:04:09 | 61.8746 | 0.05766 | 14.7780 | 6.9331 | 73.9436 | 11.88464 | – |
| 2026 Apr 28 17:56 | 2026 Apr 24 12:04:09 | 61.8746 | 0.05766 | 14.7780 | 6.9331 | 73.9436 | 11.88464 | – |
| 2026 Apr 27 17:58 | 2026 Apr 24 12:04:09 | 61.8746 | 0.05766 | 14.7780 | 6.9331 | 73.9436 | 11.88464 | – |
| 2026 Apr 26 17:58 | 2026 Apr 24 12:04:09 | 61.8746 | 0.05766 | 14.7780 | 6.9331 | 73.9436 | 11.88464 | – |
| 2026 Apr 25 17:58 | 2026 Apr 24 12:04:09 | 61.8746 | 0.05766 | 14.7780 | 6.9331 | 73.9436 | 11.88464 | – |
| 2026 Apr 24 17:59 | 2026 Apr 24 12:04:09 | 61.8746 | 0.05766 | 14.7780 | 6.9331 | 73.9436 | 11.88464 | – |
| 2026 Apr 23 17:57 | 2026 Apr 19 08:38:09 | 61.8744 | 0.05764 | 15.4768 | 5.7242 | 73.9436 | 11.88464 | – |
| 2026 Apr 22 17:57 | 2026 Apr 19 08:38:09 | 61.8744 | 0.05764 | 15.4768 | 5.7242 | 73.9436 | 11.88464 | – |
| 2026 Apr 21 17:57 | 2026 Apr 19 08:38:09 | 61.8744 | 0.05764 | 15.4768 | 5.7242 | 73.9436 | 11.88464 | – |
| 2026 Apr 20 17:57 | 2026 Apr 19 08:38:09 | 61.8744 | 0.05764 | 15.4768 | 5.7242 | 73.9436 | 11.88464 | – |
| 2026 Apr 19 17:58 | 2026 Apr 19 08:38:09 | 61.8744 | 0.05764 | 15.4768 | 5.7242 | 73.9436 | 11.88464 | – |
| 2026 Apr 18 17:56 | 2026 Apr 12 19:47:52 | 61.8742 | 0.05761 | 16.3648 | 4.1898 | 73.9436 | 11.88464 | – |
| 2026 Apr 16 17:57 | 2026 Apr 12 19:47:52 | 61.8742 | 0.05761 | 16.3648 | 4.1898 | 73.9436 | 11.88464 | – |
| 2026 Apr 14 17:57 | 2026 Apr 12 19:47:52 | 61.8742 | 0.05761 | 16.3648 | 4.1898 | 73.9436 | 11.88464 | – |
| 2026 Apr 13 17:57 | 2026 Apr 12 19:47:52 | 61.8742 | 0.05761 | 16.3648 | 4.1898 | 73.9436 | 11.88464 | – |
| 2026 Apr 12 17:57 | 2026 Apr 07 20:40:43 | 61.8739 | 0.05759 | 17.0392 | 3.0206 | 73.9436 | 11.88464 | – |
| 2026 Apr 11 17:57 | 2026 Apr 07 20:40:43 | 61.8739 | 0.05759 | 17.0392 | 3.0206 | 73.9436 | 11.88464 | – |
| 2026 Apr 10 17:58 | 2026 Apr 07 20:40:43 | 61.8739 | 0.05759 | 17.0392 | 3.0206 | 73.9436 | 11.88464 | – |
| 2026 Apr 09 18:01 | 2026 Apr 07 20:40:43 | 61.8739 | 0.05759 | 17.0392 | 3.0206 | 73.9436 | 11.88464 | – |
| 2026 Apr 08 17:57 | 2026 Apr 07 20:40:43 | 61.8739 | 0.05759 | 17.0392 | 3.0206 | 73.9436 | 11.88464 | – |
| 2026 Apr 07 17:57 | 2026 Apr 01 12:33:28 | 61.8736 | 0.05757 | 17.9006 | 1.5220 | 73.9436 | 11.88464 | – |